sensor_id;sensor_type;location;lat;lon;timestamp;pressure;altitude;pressure_sealevel;temperature;humidity
48926;BME280;39838;59.938;30.642;2022-12-29T00:00:54;100334.38;;;0.11;69.28
48926;BME280;39838;59.938;30.642;2022-12-29T00:03:21;100333.81;;;0.18;69.19
48926;BME280;39838;59.938;30.642;2022-12-29T00:05:55;100338.97;;;0.19;69.23
48926;BME280;39838;59.938;30.642;2022-12-29T00:08:23;100346.88;;;0.25;69.01
48926;BME280;39838;59.938;30.642;2022-12-29T00:11:05;100344.16;;;0.21;68.76
48926;BME280;39838;59.938;30.642;2022-12-29T00:13:32;100351.00;;;0.22;68.81
48926;BME280;39838;59.938;30.642;2022-12-29T00:16:16;100348.56;;;0.25;68.63
48926;BME280;39838;59.938;30.642;2022-12-29T00:18:44;100352.28;;;0.33;68.64
48926;BME280;39838;59.938;30.642;2022-12-29T00:21:14;100348.00;;;0.32;68.80
48926;BME280;39838;59.938;30.642;2022-12-29T00:24:00;100348.69;;;0.28;69.26
48926;BME280;39838;59.938;30.642;2022-12-29T00:26:45;100338.41;;;0.26;69.33
48926;BME280;39838;59.938;30.642;2022-12-29T00:29:29;100346.88;;;0.25;69.19
48926;BME280;39838;59.938;30.642;2022-12-29T00:32:13;100349.72;;;0.33;68.98
48926;BME280;39838;59.938;30.642;2022-12-29T00:34:58;100345.00;;;0.42;69.02
48926;BME280;39838;59.938;30.642;2022-12-29T00:37:40;100344.84;;;0.39;68.73
48926;BME280;39838;59.938;30.642;2022-12-29T00:40:26;100353.00;;;0.51;68.50
48926;BME280;39838;59.938;30.642;2022-12-29T00:43:10;100360.06;;;0.59;68.17
48926;BME280;39838;59.938;30.642;2022-12-29T00:45:54;100354.00;;;0.55;68.77
48926;BME280;39838;59.938;30.642;2022-12-29T00:48:22;100361.94;;;0.63;68.50
48926;BME280;39838;59.938;30.642;2022-12-29T00:51:03;100359.53;;;0.67;68.05
48926;BME280;39838;59.938;30.642;2022-12-29T00:53:32;100362.88;;;0.65;67.93
48926;BME280;39838;59.938;30.642;2022-12-29T00:55:59;100357.88;;;0.68;68.12
48926;BME280;39838;59.938;30.642;2022-12-29T00:58:27;100362.09;;;0.67;68.54
48926;BME280;39838;59.938;30.642;2022-12-29T01:01:01;100366.53;;;0.71;68.46
48926;BME280;39838;59.938;30.642;2022-12-29T01:03:28;100358.09;;;0.74;67.95
48926;BME280;39838;59.938;30.642;2022-12-29T01:05:55;100357.31;;;0.75;67.85
48926;BME280;39838;59.938;30.642;2022-12-29T01:08:23;100361.63;;;0.77;68.17
48926;BME280;39838;59.938;30.642;2022-12-29T01:10:59;100365.53;;;0.90;67.90
48926;BME280;39838;59.938;30.642;2022-12-29T01:13:25;100359.91;;;1.00;67.58
48926;BME280;39838;59.938;30.642;2022-12-29T01:15:53;100357.34;;;1.00;67.38
48926;BME280;39838;59.938;30.642;2022-12-29T01:18:21;100364.22;;;1.01;67.72
48926;BME280;39838;59.938;30.642;2022-12-29T01:20:49;100362.38;;;0.97;67.68
48926;BME280;39838;59.938;30.642;2022-12-29T01:23:16;100361.66;;;1.01;67.42
48926;BME280;39838;59.938;30.642;2022-12-29T01:25:43;100361.88;;;1.07;67.26
48926;BME280;39838;59.938;30.642;2022-12-29T01:28:12;100360.56;;;1.19;67.40
48926;BME280;39838;59.938;30.642;2022-12-29T01:30:39;100358.22;;;1.25;66.98
48926;BME280;39838;59.938;30.642;2022-12-29T01:33:06;100358.31;;;1.28;66.93
48926;BME280;39838;59.938;30.642;2022-12-29T01:35:33;100364.91;;;1.21;66.76
48926;BME280;39838;59.938;30.642;2022-12-29T01:38:01;100359.25;;;1.06;66.75
48926;BME280;39838;59.938;30.642;2022-12-29T01:40:28;100367.75;;;1.05;67.20
48926;BME280;39838;59.938;30.642;2022-12-29T01:42:55;100360.97;;;1.05;67.05
48926;BME280;39838;59.938;30.642;2022-12-29T01:45:23;100355.63;;;0.99;67.32
48926;BME280;39838;59.938;30.642;2022-12-29T01:47:54;100355.13;;;0.86;66.66
48926;BME280;39838;59.938;30.642;2022-12-29T01:50:27;100361.97;;;0.87;67.25
48926;BME280;39838;59.938;30.642;2022-12-29T01:52:58;100357.31;;;0.75;67.18
48926;BME280;39838;59.938;30.642;2022-12-29T01:55:27;100369.91;;;0.70;66.86
48926;BME280;39838;59.938;30.642;2022-12-29T01:58:00;100368.22;;;0.71;67.16
48926;BME280;39838;59.938;30.642;2022-12-29T02:00:31;100376.84;;;0.74;67.21
48926;BME280;39838;59.938;30.642;2022-12-29T02:02:59;100375.88;;;0.71;67.12
48926;BME280;39838;59.938;30.642;2022-12-29T02:05:30;100380.13;;;0.70;66.71
48926;BME280;39838;59.938;30.642;2022-12-29T02:08:00;100377.53;;;0.69;66.98
48926;BME280;39838;59.938;30.642;2022-12-29T02:10:30;100373.00;;;0.62;67.28
48926;BME280;39838;59.938;30.642;2022-12-29T02:12:59;100373.88;;;0.62;66.79
48926;BME280;39838;59.938;30.642;2022-12-29T02:15:51;100373.69;;;0.58;67.26
48926;BME280;39838;59.938;30.642;2022-12-29T02:18:32;100381.97;;;0.52;67.79
48926;BME280;39838;59.938;30.642;2022-12-29T02:21:31;100373.16;;;0.44;67.91
48926;BME280;39838;59.938;30.642;2022-12-29T02:24:23;100377.97;;;0.36;67.76
48926;BME280;39838;59.938;30.642;2022-12-29T02:27:11;100374.69;;;0.40;67.58
48926;BME280;39838;59.938;30.642;2022-12-29T02:30:15;100381.94;;;0.50;67.30
48926;BME280;39838;59.938;30.642;2022-12-29T02:32:54;100373.97;;;0.43;67.60
48926;BME280;39838;59.938;30.642;2022-12-29T02:35:33;100347.16;;;0.33;67.51
48926;BME280;39838;59.938;30.642;2022-12-29T02:38:13;100375.47;;;0.60;67.10
48926;BME280;39838;59.938;30.642;2022-12-29T02:40:51;100376.41;;;0.62;67.11
48926;BME280;39838;59.938;30.642;2022-12-29T02:43:24;100375.06;;;0.72;67.15
48926;BME280;39838;59.938;30.642;2022-12-29T02:45:55;100371.16;;;0.59;67.08
48926;BME280;39838;59.938;30.642;2022-12-29T02:48:29;100378.31;;;0.45;66.75
48926;BME280;39838;59.938;30.642;2022-12-29T02:50:59;100382.28;;;0.37;67.73
48926;BME280;39838;59.938;30.642;2022-12-29T02:53:28;100376.09;;;0.32;66.89
48926;BME280;39838;59.938;30.642;2022-12-29T02:56:14;100381.09;;;0.29;67.14
48926;BME280;39838;59.938;30.642;2022-12-29T02:58:41;100377.22;;;0.39;67.63
48926;BME280;39838;59.938;30.642;2022-12-29T03:01:21;100373.84;;;0.40;66.93
48926;BME280;39838;59.938;30.642;2022-12-29T03:04:03;100375.28;;;0.33;67.20
48926;BME280;39838;59.938;30.642;2022-12-29T03:06:41;100377.34;;;0.42;66.98
48926;BME280;39838;59.938;30.642;2022-12-29T03:09:22;100380.88;;;0.45;66.94
48926;BME280;39838;59.938;30.642;2022-12-29T03:11:59;100396.50;;;0.53;66.92
48926;BME280;39838;59.938;30.642;2022-12-29T03:14:43;100394.94;;;0.57;67.41
48926;BME280;39838;59.938;30.642;2022-12-29T03:17:35;100401.13;;;0.62;67.12
48926;BME280;39838;59.938;30.642;2022-12-29T03:20:08;100382.03;;;0.53;66.35
48926;BME280;39838;59.938;30.642;2022-12-29T03:22:41;100396.25;;;0.68;66.07
48926;BME280;39838;59.938;30.642;2022-12-29T03:25:11;100371.56;;;0.47;66.10
48926;BME280;39838;59.938;30.642;2022-12-29T03:27:42;100394.81;;;0.53;65.71
48926;BME280;39838;59.938;30.642;2022-12-29T03:30:12;100402.03;;;0.41;65.55
48926;BME280;39838;59.938;30.642;2022-12-29T03:32:42;100376.31;;;0.16;66.14
48926;BME280;39838;59.938;30.642;2022-12-29T03:35:14;100395.69;;;0.32;65.71
48926;BME280;39838;59.938;30.642;2022-12-29T03:37:45;100403.81;;;0.21;65.69
48926;BME280;39838;59.938;30.642;2022-12-29T03:40:16;100400.28;;;0.19;65.80
48926;BME280;39838;59.938;30.642;2022-12-29T03:42:45;100397.00;;;0.22;66.07
48926;BME280;39838;59.938;30.642;2022-12-29T03:45:14;100394.31;;;0.19;66.04
48926;BME280;39838;59.938;30.642;2022-12-29T03:47:41;100391.91;;;0.22;66.07
48926;BME280;39838;59.938;30.642;2022-12-29T03:50:08;100392.63;;;0.19;65.96
48926;BME280;39838;59.938;30.642;2022-12-29T03:52:37;100397.69;;;0.18;65.89
48926;BME280;39838;59.938;30.642;2022-12-29T03:55:04;100398.81;;;0.24;65.96
48926;BME280;39838;59.938;30.642;2022-12-29T03:57:32;100397.06;;;0.23;66.26
48926;BME280;39838;59.938;30.642;2022-12-29T03:59:59;100393.28;;;0.14;66.12
48926;BME280;39838;59.938;30.642;2022-12-29T04:02:26;100391.66;;;0.16;65.99
48926;BME280;39838;59.938;30.642;2022-12-29T04:04:53;100386.28;;;0.31;66.28
48926;BME280;39838;59.938;30.642;2022-12-29T04:07:20;100394.47;;;0.44;66.14
48926;BME280;39838;59.938;30.642;2022-12-29T04:09:49;100386.81;;;0.44;65.48
48926;BME280;39838;59.938;30.642;2022-12-29T04:12:16;100387.38;;;0.37;65.69
48926;BME280;39838;59.938;30.642;2022-12-29T04:14:43;100388.25;;;0.38;66.06
48926;BME280;39838;59.938;30.642;2022-12-29T04:17:10;100383.91;;;0.35;66.10
48926;BME280;39838;59.938;30.642;2022-12-29T04:19:38;100390.03;;;0.40;65.90
48926;BME280;39838;59.938;30.642;2022-12-29T04:22:05;100394.47;;;0.44;66.11
48926;BME280;39838;59.938;30.642;2022-12-29T04:24:32;100398.25;;;0.54;65.68
48926;BME280;39838;59.938;30.642;2022-12-29T04:27:01;100402.72;;;0.60;65.66
48926;BME280;39838;59.938;30.642;2022-12-29T04:29:28;100403.97;;;0.69;65.62
48926;BME280;39838;59.938;30.642;2022-12-29T04:31:55;100400.97;;;0.59;65.21
48926;BME280;39838;59.938;30.642;2022-12-29T04:34:22;100396.16;;;0.44;65.33
48926;BME280;39838;59.938;30.642;2022-12-29T04:36:49;100397.31;;;0.30;66.15
48926;BME280;39838;59.938;30.642;2022-12-29T04:39:16;100385.03;;;0.21;66.29
48926;BME280;39838;59.938;30.642;2022-12-29T04:41:43;100385.16;;;0.24;66.62
48926;BME280;39838;59.938;30.642;2022-12-29T04:44:12;100383.59;;;0.28;65.94
48926;BME280;39838;59.938;30.642;2022-12-29T04:46:39;100392.56;;;0.18;66.26
48926;BME280;39838;59.938;30.642;2022-12-29T04:49:06;100395.66;;;0.09;66.29
48926;BME280;39838;59.938;30.642;2022-12-29T04:51:34;100400.75;;;0.09;66.31
48926;BME280;39838;59.938;30.642;2022-12-29T04:54:01;100395.44;;;0.05;66.34
48926;BME280;39838;59.938;30.642;2022-12-29T04:56:28;100404.44;;;0.16;66.23
48926;BME280;39838;59.938;30.642;2022-12-29T04:58:56;100408.25;;;0.27;66.02
48926;BME280;39838;59.938;30.642;2022-12-29T05:01:24;100402.91;;;0.42;65.74
48926;BME280;39838;59.938;30.642;2022-12-29T05:03:51;100398.44;;;0.59;65.76
48926;BME280;39838;59.938;30.642;2022-12-29T05:06:19;100401.28;;;0.66;65.12
48926;BME280;39838;59.938;30.642;2022-12-29T05:08:46;100402.31;;;0.71;64.72
48926;BME280;39838;59.938;30.642;2022-12-29T05:11:13;100407.34;;;0.68;64.98
48926;BME280;39838;59.938;30.642;2022-12-29T05:13:40;100394.59;;;0.70;64.39
48926;BME280;39838;59.938;30.642;2022-12-29T05:16:07;100400.88;;;0.78;64.44
48926;BME280;39838;59.938;30.642;2022-12-29T05:18:36;100392.50;;;0.82;64.15
48926;BME280;39838;59.938;30.642;2022-12-29T05:21:03;100395.31;;;0.88;64.28
48926;BME280;39838;59.938;30.642;2022-12-29T05:23:30;100394.59;;;0.92;64.10
48926;BME280;39838;59.938;30.642;2022-12-29T05:25:57;100393.91;;;0.96;63.80
48926;BME280;39838;59.938;30.642;2022-12-29T05:28:24;100404.22;;;0.99;63.75
48926;BME280;39838;59.938;30.642;2022-12-29T05:30:52;100403.19;;;0.94;63.66
48926;BME280;39838;59.938;30.642;2022-12-29T05:33:19;100402.16;;;0.89;63.49
48926;BME280;39838;59.938;30.642;2022-12-29T05:35:48;100406.50;;;0.92;63.66
48926;BME280;39838;59.938;30.642;2022-12-29T05:38:15;100416.09;;;0.97;63.49
48926;BME280;39838;59.938;30.642;2022-12-29T05:40:43;100416.44;;;1.06;63.57
48926;BME280;39838;59.938;30.642;2022-12-29T05:43:10;100413.81;;;1.05;63.31
48926;BME280;39838;59.938;30.642;2022-12-29T05:45:37;100409.88;;;1.15;63.44
48926;BME280;39838;59.938;30.642;2022-12-29T05:48:04;100410.19;;;1.22;63.41
48926;BME280;39838;59.938;30.642;2022-12-29T05:50:31;100410.25;;;1.24;63.06
48926;BME280;39838;59.938;30.642;2022-12-29T05:53:00;100410.03;;;1.18;62.60
48926;BME280;39838;59.938;30.642;2022-12-29T05:55:27;100408.88;;;1.09;62.97
48926;BME280;39838;59.938;30.642;2022-12-29T05:57:54;100414.69;;;1.05;62.67
48926;BME280;39838;59.938;30.642;2022-12-29T06:00:21;100416.03;;;0.96;63.07
48926;BME280;39838;59.938;30.642;2022-12-29T06:02:49;100420.97;;;0.91;63.00
48926;BME280;39838;59.938;30.642;2022-12-29T06:05:16;100418.44;;;0.91;63.08
48926;BME280;39838;59.938;30.642;2022-12-29T06:07:43;100425.22;;;0.91;63.06
48926;BME280;39838;59.938;30.642;2022-12-29T06:10:12;100430.28;;;0.89;62.96
48926;BME280;39838;59.938;30.642;2022-12-29T06:12:39;100426.97;;;0.92;63.30
48926;BME280;39838;59.938;30.642;2022-12-29T06:15:07;100427.06;;;0.95;62.94
48926;BME280;39838;59.938;30.642;2022-12-29T06:17:34;100431.22;;;0.91;62.82
48926;BME280;39838;59.938;30.642;2022-12-29T06:20:02;100425.19;;;0.89;63.24
48926;BME280;39838;59.938;30.642;2022-12-29T06:22:29;100420.88;;;0.88;63.27
48926;BME280;39838;59.938;30.642;2022-12-29T06:24:57;100416.41;;;0.82;63.14
48926;BME280;39838;59.938;30.642;2022-12-29T06:27:25;100419.09;;;0.87;63.57
48926;BME280;39838;59.938;30.642;2022-12-29T06:29:52;100420.75;;;0.85;63.10
48926;BME280;39838;59.938;30.642;2022-12-29T06:32:19;100430.00;;;0.81;63.40
48926;BME280;39838;59.938;30.642;2022-12-29T06:34:46;100426.41;;;0.76;63.16
48926;BME280;39838;59.938;30.642;2022-12-29T06:37:13;100418.88;;;0.81;63.46
48926;BME280;39838;59.938;30.642;2022-12-29T06:39:41;100423.25;;;0.84;63.77
48926;BME280;39838;59.938;30.642;2022-12-29T06:42:09;100425.69;;;0.80;63.75
48926;BME280;39838;59.938;30.642;2022-12-29T06:44:37;100428.97;;;0.76;63.50
48926;BME280;39838;59.938;30.642;2022-12-29T06:47:04;100420.47;;;0.77;63.62
48926;BME280;39838;59.938;30.642;2022-12-29T06:49:31;100420.41;;;0.76;63.42
48926;BME280;39838;59.938;30.642;2022-12-29T06:51:58;100421.16;;;0.73;63.67
48926;BME280;39838;59.938;30.642;2022-12-29T06:54:26;100425.28;;;0.70;63.62
48926;BME280;39838;59.938;30.642;2022-12-29T06:56:53;100421.91;;;0.71;63.63
48926;BME280;39838;59.938;30.642;2022-12-29T06:59:20;100420.41;;;0.76;63.92
48926;BME280;39838;59.938;30.642;2022-12-29T07:01:49;100415.94;;;0.70;63.96
48926;BME280;39838;59.938;30.642;2022-12-29T07:04:16;100420.84;;;0.66;64.22
48926;BME280;39838;59.938;30.642;2022-12-29T07:06:43;100419.13;;;0.65;63.97
48926;BME280;39838;59.938;30.642;2022-12-29T07:09:11;100421.03;;;0.70;64.13
48926;BME280;39838;59.938;30.642;2022-12-29T07:11:38;100419.53;;;0.75;63.90
48926;BME280;39838;59.938;30.642;2022-12-29T07:14:05;100414.81;;;0.64;63.97
48926;BME280;39838;59.938;30.642;2022-12-29T07:16:32;100426.22;;;0.49;64.42
48926;BME280;39838;59.938;30.642;2022-12-29T07:19:01;100424.47;;;0.48;65.07
48926;BME280;39838;59.938;30.642;2022-12-29T07:21:28;100415.28;;;0.53;64.93
48926;BME280;39838;59.938;30.642;2022-12-29T07:23:56;100419.81;;;0.61;65.12
48926;BME280;39838;59.938;30.642;2022-12-29T07:26:23;100423.41;;;0.66;64.65
48926;BME280;39838;59.938;30.642;2022-12-29T07:28:50;100426.84;;;0.66;65.09
48926;BME280;39838;59.938;30.642;2022-12-29T07:31:21;100428.53;;;0.66;65.19
48926;BME280;39838;59.938;30.642;2022-12-29T07:33:49;100437.16;;;0.68;64.83
48926;BME280;39838;59.938;30.642;2022-12-29T07:36:17;100442.38;;;0.71;64.88
48926;BME280;39838;59.938;30.642;2022-12-29T07:38:44;100445.22;;;0.56;64.89
48926;BME280;39838;59.938;30.642;2022-12-29T07:41:11;100441.53;;;0.49;65.90
48926;BME280;39838;59.938;30.642;2022-12-29T07:43:39;100456.06;;;0.50;65.60
48926;BME280;39838;59.938;30.642;2022-12-29T07:46:06;100453.38;;;0.47;66.16
48926;BME280;39838;59.938;30.642;2022-12-29T07:48:34;100455.47;;;0.35;66.33
48926;BME280;39838;59.938;30.642;2022-12-29T07:51:01;100468.25;;;0.35;67.07
48926;BME280;39838;59.938;30.642;2022-12-29T07:53:30;100459.06;;;0.40;67.14
48926;BME280;39838;59.938;30.642;2022-12-29T07:55:57;100459.53;;;0.52;67.01
48926;BME280;39838;59.938;30.642;2022-12-29T07:58:24;100459.97;;;0.63;66.78
48926;BME280;39838;59.938;30.642;2022-12-29T08:00:54;100463.81;;;0.74;66.85
48926;BME280;39838;59.938;30.642;2022-12-29T08:03:24;100458.19;;;0.83;66.40
48926;BME280;39838;59.938;30.642;2022-12-29T08:05:54;100446.00;;;0.76;65.87
48926;BME280;39838;59.938;30.642;2022-12-29T08:08:26;100445.03;;;0.74;66.17
48926;BME280;39838;59.938;30.642;2022-12-29T08:10:54;100435.47;;;0.68;66.35
48926;BME280;39838;59.938;30.642;2022-12-29T08:13:21;100442.03;;;0.62;65.88
48926;BME280;39838;59.938;30.642;2022-12-29T08:15:48;100439.00;;;0.49;66.07
48926;BME280;39838;59.938;30.642;2022-12-29T08:18:15;100444.44;;;0.36;66.07
48926;BME280;39838;59.938;30.642;2022-12-29T08:20:43;100438.16;;;0.28;66.22
48926;BME280;39838;59.938;30.642;2022-12-29T08:23:12;100441.81;;;0.14;66.37
48926;BME280;39838;59.938;30.642;2022-12-29T08:25:41;100442.28;;;-0.16;66.91
48926;BME280;39838;59.938;30.642;2022-12-29T08:28:15;100444.47;;;-0.44;67.45
48926;BME280;39838;59.938;30.642;2022-12-29T08:30:42;100438.28;;;-0.69;68.39
48926;BME280;39838;59.938;30.642;2022-12-29T08:33:11;100446.84;;;-0.88;69.48
48926;BME280;39838;59.938;30.642;2022-12-29T08:35:38;100445.31;;;-1.02;69.95
48926;BME280;39838;59.938;30.642;2022-12-29T08:38:05;100439.69;;;-1.14;70.62
48926;BME280;39838;59.938;30.642;2022-12-29T08:40:32;100440.03;;;-1.06;70.79
48926;BME280;39838;59.938;30.642;2022-12-29T08:42:59;100437.94;;;-0.96;71.44
48926;BME280;39838;59.938;30.642;2022-12-29T08:45:28;100437.09;;;-0.77;71.35
48926;BME280;39838;59.938;30.642;2022-12-29T08:47:55;100429.50;;;-0.56;71.04
48926;BME280;39838;59.938;30.642;2022-12-29T08:50:22;100425.19;;;-0.38;70.40
48926;BME280;39838;59.938;30.642;2022-12-29T08:52:52;100431.00;;;-0.21;69.93
48926;BME280;39838;59.938;30.642;2022-12-29T08:55:26;100438.44;;;-0.06;69.55
48926;BME280;39838;59.938;30.642;2022-12-29T08:57:55;100428.53;;;0.02;69.14
48926;BME280;39838;59.938;30.642;2022-12-29T09:00:22;100437.69;;;0.17;68.95
48926;BME280;39838;59.938;30.642;2022-12-29T09:02:53;100439.00;;;0.29;69.24
48926;BME280;39838;59.938;30.642;2022-12-29T09:05:22;100436.56;;;0.32;68.64
48926;BME280;39838;59.938;30.642;2022-12-29T09:07:49;100441.56;;;0.08;68.88
48926;BME280;39838;59.938;30.642;2022-12-29T09:10:17;100443.66;;;-0.03;69.46
48926;BME280;39838;59.938;30.642;2022-12-29T09:12:45;100457.69;;;0.07;69.27
48926;BME280;39838;59.938;30.642;2022-12-29T09:15:12;100443.56;;;0.15;69.17
48926;BME280;39838;59.938;30.642;2022-12-29T09:17:41;100441.38;;;0.24;68.73
48926;BME280;39838;59.938;30.642;2022-12-29T09:20:12;100445.81;;;0.28;68.76
48926;BME280;39838;59.938;30.642;2022-12-29T09:22:41;100449.41;;;0.33;68.66
48926;BME280;39838;59.938;30.642;2022-12-29T09:25:11;100454.75;;;0.39;68.15
48926;BME280;39838;59.938;30.642;2022-12-29T09:27:39;100456.91;;;0.29;67.94
48926;BME280;39838;59.938;30.642;2022-12-29T09:30:12;100447.81;;;-0.07;68.66
48926;BME280;39838;59.938;30.642;2022-12-29T09:32:42;100452.75;;;-0.10;69.36
48926;BME280;39838;59.938;30.642;2022-12-29T09:35:14;100451.38;;;-0.02;69.97
48926;BME280;39838;59.938;30.642;2022-12-29T09:37:42;100456.16;;;0.10;69.93
48926;BME280;39838;59.938;30.642;2022-12-29T09:40:20;100453.88;;;-0.03;69.20
48926;BME280;39838;59.938;30.642;2022-12-29T09:42:55;100457.72;;;-0.34;69.86
48926;BME280;39838;59.938;30.642;2022-12-29T09:45:34;100412.19;;;-0.83;71.06
48926;BME280;39838;59.938;30.642;2022-12-29T09:48:05;100449.31;;;-0.70;71.48
48926;BME280;39838;59.938;30.642;2022-12-29T09:50:43;100365.66;;;-1.35;72.30
48926;BME280;39838;59.938;30.642;2022-12-29T09:53:16;100443.72;;;-1.00;72.24
48926;BME280;39838;59.938;30.642;2022-12-29T09:55:48;100423.00;;;-1.25;73.00
48926;BME280;39838;59.938;30.642;2022-12-29T09:58:22;100452.56;;;-1.29;73.42
48926;BME280;39838;59.938;30.642;2022-12-29T10:00:55;100456.38;;;-1.39;73.64
48926;BME280;39838;59.938;30.642;2022-12-29T10:03:26;100450.88;;;-1.48;74.06
48926;BME280;39838;59.938;30.642;2022-12-29T10:06:04;100375.53;;;-1.96;74.58
48926;BME280;39838;59.938;30.642;2022-12-29T10:08:39;100443.63;;;-1.39;74.01
48926;BME280;39838;59.938;30.642;2022-12-29T10:11:18;100439.94;;;-1.45;73.88
48926;BME280;39838;59.938;30.642;2022-12-29T10:14:02;100441.59;;;-1.46;74.14
48926;BME280;39838;59.938;30.642;2022-12-29T10:16:34;100439.94;;;-1.45;73.67
48926;BME280;39838;59.938;30.642;2022-12-29T10:19:21;100409.34;;;-1.63;73.75
48926;BME280;39838;59.938;30.642;2022-12-29T10:22:07;100445.03;;;-1.27;73.93
48926;BME280;39838;59.938;30.642;2022-12-29T10:24:39;100435.75;;;-1.07;73.71
48926;BME280;39838;59.938;30.642;2022-12-29T10:27:10;100443.25;;;-0.91;72.91
48926;BME280;39838;59.938;30.642;2022-12-29T10:29:44;100445.06;;;-1.08;73.12
48926;BME280;39838;59.938;30.642;2022-12-29T10:32:26;100443.47;;;-1.24;73.23
48926;BME280;39838;59.938;30.642;2022-12-29T10:34:58;100435.69;;;-1.27;73.61
48926;BME280;39838;59.938;30.642;2022-12-29T10:37:34;100446.59;;;-1.12;73.37
48926;BME280;39838;59.938;30.642;2022-12-29T10:40:15;100449.78;;;-1.35;73.65
48926;BME280;39838;59.938;30.642;2022-12-29T10:42:52;100358.00;;;-2.08;74.25
48926;BME280;39838;59.938;30.642;2022-12-29T10:45:21;100438.63;;;-1.73;75.06
48926;BME280;39838;59.938;30.642;2022-12-29T10:47:56;100447.63;;;-1.79;75.14
48926;BME280;39838;59.938;30.642;2022-12-29T10:50:24;100439.00;;;-1.83;75.62
48926;BME280;39838;59.938;30.642;2022-12-29T10:52:59;100417.78;;;-2.00;75.77
48926;BME280;39838;59.938;30.642;2022-12-29T10:55:33;100443.28;;;-1.64;76.01
48926;BME280;39838;59.938;30.642;2022-12-29T10:58:04;100441.59;;;-1.46;75.37
48926;BME280;39838;59.938;30.642;2022-12-29T11:00:33;100449.53;;;-1.40;75.32
48926;BME280;39838;59.938;30.642;2022-12-29T11:03:14;100442.41;;;-1.47;74.74
48926;BME280;39838;59.938;30.642;2022-12-29T11:05:49;100414.25;;;-1.68;75.02
48926;BME280;39838;59.938;30.642;2022-12-29T11:08:26;100447.50;;;-1.65;75.42
48926;BME280;39838;59.938;30.642;2022-12-29T11:10:59;100440.97;;;-1.59;75.52
48926;BME280;39838;59.938;30.642;2022-12-29T11:13:28;100445.59;;;-1.33;75.49
48926;BME280;39838;59.938;30.642;2022-12-29T11:15:56;100437.84;;;-1.17;75.08
48926;BME280;39838;59.938;30.642;2022-12-29T11:18:27;100441.91;;;-1.02;74.54
48926;BME280;39838;59.938;30.642;2022-12-29T11:21:02;100411.44;;;-0.99;74.13
48926;BME280;39838;59.938;30.642;2022-12-29T11:23:38;100454.84;;;-0.80;73.51
48926;BME280;39838;59.938;30.642;2022-12-29T11:26:11;100424.03;;;-1.02;73.05
48926;BME280;39838;59.938;30.642;2022-12-29T11:28:40;100446.97;;;-0.85;73.43
48926;BME280;39838;59.938;30.642;2022-12-29T11:31:08;100437.16;;;-0.75;73.37
48926;BME280;39838;59.938;30.642;2022-12-29T11:33:38;100393.13;;;-0.91;72.98
48926;BME280;39838;59.938;30.642;2022-12-29T11:36:07;100397.41;;;-0.90;72.53
48926;BME280;39838;59.938;30.642;2022-12-29T11:38:39;100441.94;;;-0.64;72.38
48926;BME280;39838;59.938;30.642;2022-12-29T11:41:11;100448.06;;;-0.60;72.64
48926;BME280;39838;59.938;30.642;2022-12-29T11:43:45;100359.16;;;-1.09;72.14
48926;BME280;39838;59.938;30.642;2022-12-29T11:46:18;100449.91;;;-0.56;71.96
48926;BME280;39838;59.938;30.642;2022-12-29T11:48:48;100440.53;;;-0.57;71.98
48926;BME280;39838;59.938;30.642;2022-12-29T11:51:22;100423.53;;;-0.57;71.96
48926;BME280;39838;59.938;30.642;2022-12-29T11:53:54;100429.72;;;-0.51;72.16
48926;BME280;39838;59.938;30.642;2022-12-29T11:56:34;100403.06;;;-0.58;71.61
48926;BME280;39838;59.938;30.642;2022-12-29T11:59:24;100423.78;;;-0.50;71.35
48926;BME280;39838;59.938;30.642;2022-12-29T12:01:57;100381.94;;;-0.94;71.53
48926;BME280;39838;59.938;30.642;2022-12-29T12:04:28;100402.34;;;-0.94;71.83
48926;BME280;39838;59.938;30.642;2022-12-29T12:07:02;100417.09;;;-0.87;72.17
48926;BME280;39838;59.938;30.642;2022-12-29T12:09:36;100414.63;;;-0.86;71.79
48926;BME280;39838;59.938;30.642;2022-12-29T12:12:09;100341.81;;;-1.35;71.99
48926;BME280;39838;59.938;30.642;2022-12-29T12:14:49;100424.53;;;-0.92;72.24
48926;BME280;39838;59.938;30.642;2022-12-29T12:17:26;100426.28;;;-0.91;71.97
48926;BME280;39838;59.938;30.642;2022-12-29T12:20:14;100394.94;;;-1.07;72.04
48926;BME280;39838;59.938;30.642;2022-12-29T12:22:54;100413.78;;;-1.04;72.33
48926;BME280;39838;59.938;30.642;2022-12-29T12:25:34;100360.41;;;-1.38;72.41
48926;BME280;39838;59.938;30.642;2022-12-29T12:28:19;100406.88;;;-1.06;72.52
48926;BME280;39838;59.938;30.642;2022-12-29T12:30:50;100408.34;;;-1.12;72.52
48926;BME280;39838;59.938;30.642;2022-12-29T12:33:27;100409.69;;;-1.20;72.71
48926;BME280;39838;59.938;30.642;2022-12-29T12:36:09;100406.19;;;-1.22;72.75
48926;BME280;39838;59.938;30.642;2022-12-29T12:38:45;100413.09;;;-1.19;72.78
48926;BME280;39838;59.938;30.642;2022-12-29T12:41:34;100324.66;;;-1.77;72.85
48926;BME280;39838;59.938;30.642;2022-12-29T12:44:13;100404.94;;;-1.30;73.32
48926;BME280;39838;59.938;30.642;2022-12-29T12:47:04;100412.00;;;-1.24;73.12
48926;BME280;39838;59.938;30.642;2022-12-29T12:50:12;100417.91;;;-1.25;73.26
48926;BME280;39838;59.938;30.642;2022-12-29T12:55:57;100421.69;;;-1.17;73.03
48926;BME280;39838;59.938;30.642;2022-12-29T12:58:38;100410.78;;;-1.15;72.99
48926;BME280;39838;59.938;30.642;2022-12-29T13:01:27;100422.56;;;-1.17;73.05
48926;BME280;39838;59.938;30.642;2022-12-29T13:06:58;100415.72;;;-1.18;73.44
48926;BME280;39838;59.938;30.642;2022-12-29T13:09:41;100409.16;;;-1.13;73.34
48926;BME280;39838;59.938;30.642;2022-12-29T13:12:22;100403.47;;;-1.07;73.56
48926;BME280;39838;59.938;30.642;2022-12-29T13:15:08;100409.72;;;-1.00;73.41
48926;BME280;39838;59.938;30.642;2022-12-29T13:17:45;100404.66;;;-0.99;72.92